createdAt,value
2018-05-01T00:01:43.301Z,94620.41
2018-05-01T00:04:11.768Z,94615.69
2018-05-01T00:06:40.176Z,94612.74
2018-05-01T00:09:08.648Z,94615.78
2018-05-01T00:11:37.068Z,94613.96
2018-05-01T00:14:05.519Z,94617.86
2018-05-01T00:16:33.968Z,94611.16
2018-05-01T00:19:02.426Z,94614.34
2018-05-01T00:21:30.874Z,94612.80
2018-05-01T00:23:59.353Z,94596.61
2018-05-01T00:26:27.769Z,94620.65
2018-05-01T00:28:56.272Z,94614.46
2018-05-01T00:31:24.668Z,94626.57
2018-05-01T00:33:53.116Z,94617.91
2018-05-01T00:36:21.566Z,94616.83
2018-05-01T00:38:49.985Z,94615.38
2018-05-01T00:41:18.441Z,94619.98
2018-05-01T00:43:46.967Z,94616.19
2018-05-01T00:46:15.383Z,94614.98
2018-05-01T00:48:43.839Z,94613.03
2018-05-01T00:51:12.311Z,94609.10
2018-05-01T00:53:40.700Z,94614.88
2018-05-01T00:56:09.149Z,94612.91
2018-05-01T00:58:37.616Z,94618.30
2018-05-01T01:01:06.084Z,94610.79
2018-05-01T01:03:34.551Z,94615.91
2018-05-01T01:06:02.971Z,94616.64
2018-05-01T01:08:31.391Z,94613.13
2018-05-01T01:10:59.874Z,94612.85
2018-05-01T01:13:28.300Z,94616.73
2018-05-01T01:15:56.744Z,94614.49
2018-05-01T01:18:25.199Z,94616.36
2018-05-01T01:20:53.655Z,94618.75
2018-05-01T01:23:22.097Z,94613.63
2018-05-01T01:25:50.529Z,94625.44
2018-05-01T01:28:19.126Z,94617.94
2018-05-01T01:30:47.526Z,94622.97
2018-05-01T01:33:16.011Z,94627.37
2018-05-01T01:35:43.936Z,94602.86
2018-05-01T01:38:11.812Z,94621.50
2018-05-01T01:40:39.678Z,94619.19
2018-05-01T01:43:07.590Z,94622.36
2018-05-01T01:45:35.519Z,94619.84
2018-05-01T01:48:03.433Z,94621.67
2018-05-01T01:50:31.309Z,94623.76
2018-05-01T01:52:59.218Z,94623.45
2018-05-01T01:55:27.072Z,94626.94
2018-05-01T01:57:55.166Z,94617.55
2018-05-01T02:00:23.006Z,94631.53
2018-05-01T02:02:50.863Z,94630.77
2018-05-01T02:05:18.731Z,94624.62
2018-05-01T02:07:46.618Z,94626.08
2018-05-01T02:10:14.530Z,94626.83
2018-05-01T02:12:42.384Z,94638.58
2018-05-01T02:15:10.269Z,94633.44
2018-05-01T02:17:38.184Z,94636.48
2018-05-01T02:20:06.057Z,94628.34
2018-05-01T02:22:34.008Z,94632.28
2018-05-01T02:25:01.876Z,94621.48
2018-05-01T02:27:29.740Z,94630.97
2018-05-01T02:29:57.640Z,94629.91
2018-05-01T02:32:25.514Z,94624.99
2018-05-01T02:34:53.419Z,94628.30
2018-05-01T02:37:21.314Z,94620.02
2018-05-01T02:39:49.166Z,94617.16
2018-05-01T02:42:17.079Z,94620.64
2018-05-01T02:44:44.980Z,94620.19
2018-05-01T02:47:12.887Z,94621.31
2018-05-01T02:49:40.739Z,94622.00
2018-05-01T02:52:08.656Z,94622.02
2018-05-01T02:54:36.567Z,94626.42
2018-05-01T02:57:04.432Z,94619.52
2018-05-01T02:59:32.319Z,94629.72
2018-05-01T03:02:00.199Z,94627.72
2018-05-01T03:04:28.126Z,94627.02
2018-05-01T03:06:56.008Z,94626.08
2018-05-01T03:09:23.901Z,94632.71
2018-05-01T03:11:51.805Z,94631.09
2018-05-01T03:14:19.715Z,94631.31
2018-05-01T03:16:47.636Z,94631.44
2018-05-01T03:19:15.530Z,94644.30
2018-05-01T03:21:43.445Z,94634.72
2018-05-01T03:24:11.316Z,94646.62
2018-05-01T03:26:39.205Z,94646.47
2018-05-01T03:29:07.050Z,94650.00
2018-05-01T03:31:34.947Z,94645.95
2018-05-01T03:34:02.855Z,94648.97
2018-05-01T03:36:30.782Z,94650.22
2018-05-01T03:38:58.776Z,94649.52
2018-05-01T03:41:26.683Z,94647.99
2018-05-01T03:43:54.587Z,94646.91
2018-05-01T03:46:22.491Z,94651.70
2018-05-01T03:48:50.370Z,94620.53
2018-05-01T03:51:18.238Z,94644.93
2018-05-01T03:53:46.143Z,94652.80
2018-05-01T03:56:14.068Z,94652.94
2018-05-01T03:58:41.992Z,94651.33
2018-05-01T04:01:09.887Z,94655.66
2018-05-01T04:03:37.774Z,94656.72
2018-05-01T04:06:05.698Z,94667.09
2018-05-01T04:08:33.547Z,94659.92
2018-05-01T04:11:01.445Z,94661.12
2018-05-01T04:13:29.310Z,94665.73
2018-05-01T04:15:57.183Z,94666.72
2018-05-01T04:18:25.110Z,94666.17
2018-05-01T04:20:52.983Z,94665.16
2018-05-01T04:23:20.847Z,94655.47
2018-05-01T04:25:48.748Z,94690.91
2018-05-01T04:28:16.660Z,94676.68
2018-05-01T04:30:44.554Z,94676.05
2018-05-01T04:33:12.454Z,94675.27
2018-05-01T04:35:40.495Z,94675.91
2018-05-01T04:38:08.365Z,94684.56
2018-05-01T04:40:36.365Z,94678.12
2018-05-01T04:43:04.228Z,94678.88
2018-05-01T04:45:32.140Z,94679.28
2018-05-01T04:48:00.089Z,94676.03
2018-05-01T04:50:28.023Z,94681.00
2018-05-01T04:52:55.961Z,94656.27
2018-05-01T04:55:24.033Z,94675.51
2018-05-01T04:57:51.947Z,94668.69
2018-05-01T05:00:20.424Z,94676.94
2018-05-01T05:02:48.348Z,94678.86
2018-05-01T05:05:16.245Z,94681.37
2018-05-01T05:07:44.167Z,94683.17
2018-05-01T05:10:12.090Z,94683.54
2018-05-01T05:12:39.976Z,94692.78
2018-05-01T05:15:07.848Z,94691.70
2018-05-01T05:17:35.759Z,94691.36
2018-05-01T05:20:03.620Z,94687.52
2018-05-01T05:22:31.501Z,94691.13
2018-05-01T05:24:59.452Z,94694.82
2018-05-01T05:27:27.380Z,94696.14
2018-05-01T05:29:55.275Z,94691.67
2018-05-01T05:32:23.228Z,94689.86
2018-05-01T05:34:51.152Z,94691.38
2018-05-01T05:37:19.052Z,94689.56
2018-05-01T05:39:46.925Z,94696.50
2018-05-01T05:42:14.891Z,94688.91
2018-05-01T05:44:42.908Z,94693.10
2018-05-01T05:47:11.538Z,94695.33
2018-05-01T05:49:39.626Z,94691.42
2018-05-01T05:52:07.703Z,94675.63
2018-05-01T05:54:35.603Z,94693.63
2018-05-01T05:57:03.668Z,94687.05
2018-05-01T05:59:31.583Z,94690.04
2018-05-01T06:01:59.545Z,94688.45
2018-05-01T06:04:27.560Z,94687.13
2018-05-01T06:06:55.439Z,94685.09
2018-05-01T06:09:23.343Z,94681.21
2018-05-01T06:11:51.211Z,94683.80
2018-05-01T06:14:19.121Z,94685.22
2018-05-01T06:16:47.018Z,94688.66
2018-05-01T06:19:15.185Z,94685.84
2018-05-01T06:21:43.137Z,94684.91
2018-05-01T06:24:11.065Z,94683.97
2018-05-01T06:26:38.959Z,94663.02
2018-05-01T06:29:07.042Z,94676.55
2018-05-01T06:31:34.979Z,94672.42
2018-05-01T06:34:02.855Z,94672.56
2018-05-01T06:36:30.782Z,94674.53
2018-05-01T06:38:58.712Z,94675.88
2018-05-01T06:41:26.659Z,94677.81
2018-05-01T06:43:54.676Z,94685.59
2018-05-01T06:46:22.524Z,94679.66
2018-05-01T06:48:50.374Z,94677.41
2018-05-01T06:51:18.298Z,94676.09
2018-05-01T06:53:46.871Z,94673.86
2018-05-01T06:56:14.814Z,94674.03
2018-05-01T06:58:42.697Z,94666.09
2018-05-01T07:01:10.606Z,94671.11
2018-05-01T07:03:38.479Z,94669.59
2018-05-01T07:06:06.397Z,94665.85
2018-05-01T07:08:34.331Z,94662.05
2018-05-01T07:11:02.295Z,94659.83
2018-05-01T07:13:30.152Z,94653.69
2018-05-01T07:15:58.064Z,94660.81
2018-05-01T07:18:26.103Z,94657.35
2018-05-01T07:20:54.037Z,94650.65
2018-05-01T07:23:21.927Z,94651.08
2018-05-01T07:25:49.811Z,94650.77
2018-05-01T07:28:17.690Z,94645.88
2018-05-01T07:30:45.756Z,94654.25
2018-05-01T07:33:13.685Z,94645.45
2018-05-01T07:35:41.664Z,94625.38
2018-05-01T07:38:09.637Z,94624.77
2018-05-01T07:40:37.634Z,94643.73
2018-05-01T07:43:06.586Z,94648.98
2018-05-01T07:45:34.796Z,94643.78
2018-05-01T07:48:02.747Z,94649.12
2018-05-01T07:50:30.680Z,94628.03
2018-05-01T07:52:58.561Z,94643.70
2018-05-01T07:55:26.494Z,94637.70
2018-05-01T07:57:54.352Z,94644.55
2018-05-01T08:00:22.323Z,94645.58
2018-05-01T08:02:50.254Z,94637.61
2018-05-01T08:05:18.136Z,94642.13
2018-05-01T08:07:47.033Z,94651.14
2018-05-01T08:10:14.921Z,94647.33
2018-05-01T08:12:42.814Z,94643.23
2018-05-01T08:15:11.155Z,94646.58
2018-05-01T08:17:39.023Z,94640.13
2018-05-01T08:20:06.960Z,94639.44
2018-05-01T08:22:34.877Z,94642.98
2018-05-01T08:25:02.784Z,94647.66
2018-05-01T08:27:30.652Z,94642.39
2018-05-01T08:30:00.021Z,94641.73
2018-05-01T08:32:28.407Z,94642.41
2018-05-01T08:34:56.306Z,94637.20
2018-05-01T08:37:24.668Z,94642.59
2018-05-01T08:39:52.532Z,94645.66
2018-05-01T08:42:20.419Z,94646.19
2018-05-01T08:44:48.664Z,94635.02
2018-05-01T08:47:16.650Z,94645.14
2018-05-01T08:49:44.542Z,94634.13
2018-05-01T08:52:12.503Z,94633.86
2018-05-01T08:54:41.060Z,94633.19
2018-05-01T08:57:08.927Z,94636.11
2018-05-01T08:59:36.930Z,94636.95
2018-05-01T09:02:04.937Z,94634.77
2018-05-01T09:04:32.820Z,94637.83
2018-05-01T09:07:00.715Z,94632.45
2018-05-01T09:09:29.486Z,94633.83
2018-05-01T09:11:57.408Z,94619.33
2018-05-01T09:14:25.304Z,94628.75
2018-05-01T09:16:53.234Z,94625.25
2018-05-01T09:19:21.123Z,94626.26
2018-05-01T09:21:49.035Z,94624.02
2018-05-01T09:24:16.891Z,94604.30
2018-05-01T09:26:44.946Z,94624.70
2018-05-01T09:29:12.815Z,94629.28
2018-05-01T09:31:40.710Z,94627.66
2018-05-01T09:34:08.568Z,94623.75
2018-05-01T09:36:36.467Z,94621.50
2018-05-01T09:39:04.375Z,94622.33
2018-05-01T09:41:32.244Z,94626.77
2018-05-01T09:44:00.165Z,94626.86
2018-05-01T09:46:28.658Z,94630.59
2018-05-01T09:48:56.723Z,94625.27
2018-05-01T09:51:24.667Z,94621.34
2018-05-01T09:53:53.712Z,94615.75
2018-05-01T09:56:22.110Z,94616.66
2018-05-01T09:58:50.523Z,94620.52
2018-05-01T10:01:19.131Z,94610.05
2018-05-01T10:03:47.555Z,94610.37
2018-05-01T10:06:16.012Z,94610.30
2018-05-01T10:08:45.623Z,94601.61
2018-05-01T10:11:14.040Z,94601.73
2018-05-01T10:13:42.446Z,94604.36
2018-05-01T10:16:10.889Z,94602.94
2018-05-01T10:18:39.338Z,94589.35
2018-05-01T10:21:07.782Z,94592.90
2018-05-01T10:23:36.240Z,94590.13
2018-05-01T10:26:04.655Z,94588.08
2018-05-01T10:28:33.113Z,94586.53
2018-05-01T10:31:01.596Z,94581.96
2018-05-01T10:33:30.064Z,94592.29
2018-05-01T10:35:58.538Z,94590.11
2018-05-01T10:38:27.007Z,94587.88
2018-05-01T10:40:55.407Z,94595.52
2018-05-01T10:43:23.867Z,94589.65
2018-05-01T10:45:52.327Z,94594.81
2018-05-01T10:48:20.761Z,94596.87
2018-05-01T10:50:49.200Z,94594.86
2018-05-01T10:53:17.605Z,94593.41
2018-05-01T10:55:46.039Z,94585.78
2018-05-01T10:58:14.447Z,94595.00
2018-05-01T11:00:42.975Z,94590.98
2018-05-01T11:03:11.323Z,94590.43
2018-05-01T11:05:39.753Z,94593.74
2018-05-01T11:08:08.148Z,94589.18
2018-05-01T11:10:36.603Z,94584.75
2018-05-01T11:13:05.102Z,94586.52
2018-05-01T11:15:33.515Z,94580.61
2018-05-01T11:18:01.947Z,94572.80
2018-05-01T11:20:30.374Z,94585.46
2018-05-01T11:22:58.867Z,94587.52
2018-05-01T11:25:27.286Z,94580.36
2018-05-01T11:27:55.758Z,94579.27
2018-05-01T11:30:24.222Z,94582.34
2018-05-01T11:32:52.659Z,94582.34
2018-05-01T11:35:21.215Z,94584.02
2018-05-01T11:37:49.659Z,94582.30
2018-05-01T11:40:18.171Z,94574.25
2018-05-01T11:42:47.319Z,94575.43
2018-05-01T11:45:15.748Z,94575.63
2018-05-01T11:47:44.187Z,94567.06
2018-05-01T11:50:13.196Z,94564.11
2018-05-01T11:52:41.643Z,94558.06
2018-05-01T11:55:10.077Z,94557.36
2018-05-01T11:57:38.505Z,94560.48
2018-05-01T12:00:07.001Z,94547.83
2018-05-01T12:02:35.471Z,94542.72
2018-05-01T12:05:03.910Z,94541.95
2018-05-01T12:07:32.311Z,94541.83
2018-05-01T12:10:00.726Z,94537.66
2018-05-01T12:12:29.141Z,94535.63
2018-05-01T12:14:57.566Z,94536.59
2018-05-01T12:17:26.030Z,94534.91
2018-05-01T12:19:54.504Z,94539.48
2018-05-01T12:22:22.943Z,94530.70
2018-05-01T12:24:51.371Z,94528.63
2018-05-01T12:27:19.882Z,94522.02
2018-05-01T12:29:48.359Z,94517.61
2018-05-01T12:32:16.796Z,94517.53
2018-05-01T12:34:45.215Z,94522.02
2018-05-01T12:37:13.612Z,94511.54
2018-05-01T12:39:42.046Z,94522.23
2018-05-01T12:42:10.538Z,94515.53
2018-05-01T12:44:39.086Z,94510.74
2018-05-01T12:47:07.540Z,94510.55
2018-05-01T12:49:35.984Z,94503.19
2018-05-01T12:52:04.492Z,94508.63
2018-05-01T12:54:32.935Z,94498.00
2018-05-01T12:57:01.360Z,94488.14
2018-05-01T12:59:29.806Z,94492.44
2018-05-01T13:01:58.260Z,94490.52
2018-05-01T13:04:26.667Z,94483.23
2018-05-01T13:06:55.111Z,94480.60
2018-05-01T13:09:23.537Z,94474.81
2018-05-01T13:11:51.958Z,94480.75
2018-05-01T13:14:20.412Z,94475.41
2018-05-01T13:16:48.814Z,94474.00
2018-05-01T13:19:17.205Z,94469.53
2018-05-01T13:21:45.661Z,94458.86
2018-05-01T13:24:14.479Z,94459.82
2018-05-01T13:26:42.937Z,94453.53
2018-05-01T13:29:11.463Z,94455.58
2018-05-01T13:31:40.239Z,94445.56
2018-05-01T13:34:08.652Z,94435.50
2018-05-01T13:36:37.097Z,94441.53
2018-05-01T13:39:05.979Z,94437.57
2018-05-01T13:41:34.388Z,94428.22
2018-05-01T13:44:02.822Z,94424.19
2018-05-01T13:46:31.325Z,94425.70
2018-05-01T13:48:59.793Z,94426.55
2018-05-01T13:51:28.230Z,94424.95
2018-05-01T13:53:56.651Z,94416.00
2018-05-01T13:56:25.094Z,94418.88
2018-05-01T13:58:53.541Z,94411.12
2018-05-01T14:01:21.995Z,94395.40
2018-05-01T14:03:50.426Z,94410.47
2018-05-01T14:06:18.848Z,94407.76
2018-05-01T14:08:47.265Z,94398.83
2018-05-01T14:11:15.748Z,94402.30
2018-05-01T14:13:44.181Z,94397.83
2018-05-01T14:16:12.633Z,94394.26
2018-05-01T14:18:41.039Z,94392.54
2018-05-01T14:21:09.492Z,94387.33
2018-05-01T14:23:37.892Z,94389.98
2018-05-01T14:26:06.304Z,94398.16
2018-05-01T14:28:34.772Z,94388.41
2018-05-01T14:31:03.299Z,94399.55
2018-05-01T14:33:31.777Z,94394.36
2018-05-01T14:36:00.137Z,94395.09
2018-05-01T14:38:28.580Z,94395.98
2018-05-01T14:40:56.970Z,94396.91
2018-05-01T14:43:25.439Z,94395.46
2018-05-01T14:45:53.843Z,94397.03
2018-05-01T14:48:22.229Z,94390.08
2018-05-01T14:50:50.660Z,94385.77
2018-05-01T14:53:19.075Z,94378.60
2018-05-01T14:55:47.547Z,94382.09
2018-05-01T14:58:15.964Z,94368.78
2018-05-01T15:00:44.402Z,94387.42
2018-05-01T15:03:13.053Z,94382.64
2018-05-01T15:05:41.428Z,94385.09
2018-05-01T15:08:09.859Z,94398.48
2018-05-01T15:10:38.299Z,94398.06
2018-05-01T15:13:06.770Z,94406.86
2018-05-01T15:15:35.231Z,94390.25
2018-05-01T15:18:03.685Z,94396.98
2018-05-01T15:20:32.150Z,94402.16
2018-05-01T15:23:00.611Z,94399.34
2018-05-01T15:25:29.143Z,94398.75
2018-05-01T15:27:57.757Z,94405.15
2018-05-01T15:30:26.260Z,94397.06
2018-05-01T15:32:54.718Z,94406.97
2018-05-01T15:35:23.241Z,94412.97
2018-05-01T15:37:51.754Z,94406.16
2018-05-01T15:40:20.267Z,94405.16
2018-05-01T15:42:48.799Z,94408.59
2018-05-01T15:45:17.510Z,94393.47
2018-05-01T15:47:45.911Z,94395.17
2018-05-01T15:50:14.338Z,94389.20
2018-05-01T15:52:42.751Z,94390.20
2018-05-01T15:55:11.215Z,94395.47
2018-05-01T15:57:39.618Z,94401.16
2018-05-01T16:00:08.043Z,94408.75
2018-05-01T16:02:36.545Z,94413.93
2018-05-01T16:05:04.999Z,94397.91
2018-05-01T16:07:33.397Z,94412.42
2018-05-01T16:10:01.897Z,94415.09
2018-05-01T16:12:30.323Z,94417.00
2018-05-01T16:14:58.794Z,94418.88
2018-05-01T16:17:27.180Z,94421.65
2018-05-01T16:19:55.632Z,94429.65
2018-05-01T16:22:24.048Z,94427.98
2018-05-01T16:24:52.466Z,94405.97
2018-05-01T16:27:20.911Z,94415.56
2018-05-01T16:29:49.354Z,94417.15
2018-05-01T16:32:17.783Z,94414.55
2018-05-01T16:34:46.203Z,94403.55
2018-05-01T16:37:14.666Z,94390.06
2018-05-01T16:39:43.079Z,94401.28
2018-05-01T16:42:11.483Z,94397.75
2018-05-01T16:44:39.941Z,94401.13
2018-05-01T16:47:08.406Z,94405.45
2018-05-01T16:49:36.828Z,94399.83
2018-05-01T16:52:05.295Z,94396.19
2018-05-01T16:54:33.754Z,94387.95
2018-05-01T16:57:02.176Z,94405.13
2018-05-01T16:59:30.588Z,94407.30
2018-05-01T17:01:59.060Z,94408.72
2018-05-01T17:04:27.518Z,94412.05
2018-05-01T17:06:55.998Z,94415.34
2018-05-01T17:09:24.518Z,94414.65
2018-05-01T17:11:53.006Z,94427.25
2018-05-01T17:14:21.653Z,94433.12
2018-05-01T17:16:50.068Z,94430.19
2018-05-01T17:19:18.527Z,94436.84
2018-05-01T17:21:46.987Z,94444.83
2018-05-01T17:24:15.499Z,94441.52
2018-05-01T17:26:43.942Z,94435.70
2018-05-01T17:29:12.390Z,94450.67
2018-05-01T17:31:40.852Z,94450.67
2018-05-01T17:34:09.304Z,94456.73
2018-05-01T17:36:37.858Z,94456.64
2018-05-01T17:39:06.420Z,94461.02
2018-05-01T17:41:34.927Z,94461.50
2018-05-01T17:44:03.379Z,94459.56
2018-05-01T17:46:31.817Z,94467.81
2018-05-01T17:49:00.237Z,94437.25
2018-05-01T17:51:28.767Z,94466.03
2018-05-01T17:53:57.212Z,94481.64
2018-05-01T17:56:25.608Z,94481.30
2018-05-01T17:58:54.052Z,94484.92
2018-05-01T18:01:22.463Z,94492.25
2018-05-01T18:03:50.888Z,94497.61
2018-05-01T18:06:19.309Z,94498.60
2018-05-01T18:08:47.773Z,94505.08
2018-05-01T18:11:16.251Z,94506.63
2018-05-01T18:13:44.727Z,94502.25
2018-05-01T18:16:13.157Z,94503.61
2018-05-01T18:18:41.638Z,94501.39
2018-05-01T18:21:10.048Z,94498.45
2018-05-01T18:23:38.477Z,94502.73
2018-05-01T18:26:06.950Z,94506.84
2018-05-01T18:28:35.415Z,94508.59
2018-05-01T18:31:03.833Z,94509.78
2018-05-01T18:33:32.257Z,94508.13
2018-05-01T18:36:00.761Z,94512.26
2018-05-01T18:38:29.214Z,94512.42
2018-05-01T18:40:57.600Z,94512.78
2018-05-01T18:43:26.086Z,94520.58
2018-05-01T18:45:54.555Z,94522.56
2018-05-01T18:48:22.996Z,94519.25
2018-05-01T18:50:51.515Z,94523.27
2018-05-01T18:53:19.884Z,94523.20
2018-05-01T18:55:48.308Z,94525.48
2018-05-01T18:58:16.817Z,94529.55
2018-05-01T19:00:45.226Z,94537.04
2018-05-01T19:03:13.781Z,94531.73
2018-05-01T19:05:42.205Z,94539.28
2018-05-01T19:08:10.607Z,94520.17
2018-05-01T19:10:39.044Z,94539.02
2018-05-01T19:13:07.442Z,94537.50
2018-05-01T19:15:35.971Z,94530.75
2018-05-01T19:18:04.414Z,94530.15
2018-05-01T19:20:32.879Z,94527.03
2018-05-01T19:23:01.275Z,94528.33
2018-05-01T19:25:29.757Z,94528.07
2018-05-01T19:27:58.162Z,94530.33
2018-05-01T19:30:26.610Z,94530.48
2018-05-01T19:32:55.034Z,94506.98
2018-05-01T19:35:23.576Z,94525.08
2018-05-01T19:37:52.077Z,94524.45
2018-05-01T19:40:20.517Z,94527.91
2018-05-01T19:42:48.951Z,94528.19
2018-05-01T19:45:17.428Z,94525.94
2018-05-01T19:47:45.828Z,94531.86
2018-05-01T19:50:14.318Z,94528.30
2018-05-01T19:52:42.753Z,94523.29
2018-05-01T19:55:11.222Z,94535.06
2018-05-01T19:57:39.640Z,94511.34
2018-05-01T20:00:08.090Z,94533.98
2018-05-01T20:02:36.525Z,94523.50
2018-05-01T20:05:05.086Z,94527.28
2018-05-01T20:07:33.535Z,94525.66
2018-05-01T20:10:01.975Z,94524.73
2018-05-01T20:12:30.396Z,94525.42
2018-05-01T20:14:58.861Z,94526.97
2018-05-01T20:17:27.275Z,94551.59
2018-05-01T20:19:55.703Z,94526.70
2018-05-01T20:22:24.143Z,94526.30
2018-05-01T20:24:52.595Z,94530.29
2018-05-01T20:27:21.021Z,94525.61
2018-05-01T20:29:49.472Z,94523.95
2018-05-01T20:32:17.863Z,94526.64
2018-05-01T20:34:46.341Z,94519.84
2018-05-01T20:37:14.756Z,94526.61
2018-05-01T20:39:43.229Z,94523.40
2018-05-01T20:42:11.677Z,94527.81
2018-05-01T20:44:40.165Z,94515.03
2018-05-01T20:47:08.581Z,94517.92
2018-05-01T20:49:37.012Z,94512.47
2018-05-01T20:52:06.267Z,94506.39
2018-05-01T20:54:34.664Z,94507.03
2018-05-01T20:57:03.235Z,94505.38
2018-05-01T20:59:31.752Z,94514.45
2018-05-01T21:02:00.176Z,94513.58
2018-05-01T21:04:28.634Z,94507.89
2018-05-01T21:06:57.081Z,94510.91
2018-05-01T21:09:25.539Z,94510.52
2018-05-01T21:11:53.956Z,94511.01
2018-05-01T21:14:22.411Z,94522.82
2018-05-01T21:16:50.834Z,94527.83
2018-05-01T21:19:19.323Z,94528.05
2018-05-01T21:21:47.742Z,94533.75
2018-05-01T21:24:16.172Z,94531.33
2018-05-01T21:26:44.609Z,94542.14
2018-05-01T21:29:13.062Z,94537.05
2018-05-01T21:31:41.518Z,94540.44
2018-05-01T21:34:09.985Z,94548.94
2018-05-01T21:36:38.422Z,94549.20
2018-05-01T21:39:06.867Z,94546.72
2018-05-01T21:41:35.304Z,94542.83
2018-05-01T21:44:03.755Z,94548.02
2018-05-01T21:46:32.289Z,94553.50
2018-05-01T21:49:00.675Z,94552.51
2018-05-01T21:51:29.129Z,94546.72
2018-05-01T21:53:57.567Z,94551.38
2018-05-01T21:56:26.040Z,94547.95
2018-05-01T21:58:54.439Z,94548.83
2018-05-01T22:01:22.930Z,94556.34
2018-05-01T22:03:51.396Z,94549.81
2018-05-01T22:06:19.808Z,94558.94
2018-05-01T22:08:48.278Z,94559.30
2018-05-01T22:11:16.751Z,94557.45
2018-05-01T22:13:45.199Z,94558.11
2018-05-01T22:16:13.760Z,94556.55
2018-05-01T22:18:42.208Z,94557.16
2018-05-01T22:21:10.592Z,94557.66
2018-05-01T22:23:39.036Z,94559.16
2018-05-01T22:26:07.460Z,94559.16
2018-05-01T22:28:35.874Z,94559.75
2018-05-01T22:31:04.330Z,94552.00
2018-05-01T22:33:32.834Z,94552.31
2018-05-01T22:36:01.238Z,94550.36
2018-05-01T22:38:29.667Z,94544.41
2018-05-01T22:40:58.075Z,94548.26
2018-05-01T22:43:26.511Z,94545.13
2018-05-01T22:45:54.934Z,94539.33
2018-05-01T22:48:23.411Z,94526.70
2018-05-01T22:50:51.828Z,94545.00
2018-05-01T22:53:20.297Z,94533.63
2018-05-01T22:55:48.759Z,94541.36
2018-05-01T22:58:17.155Z,94542.24
2018-05-01T23:00:45.583Z,94533.95
2018-05-01T23:03:14.035Z,94542.11
2018-05-01T23:05:42.516Z,94529.64
2018-05-01T23:08:10.970Z,94536.67
2018-05-01T23:10:39.412Z,94545.07
2018-05-01T23:13:07.804Z,94534.13
2018-05-01T23:15:36.241Z,94531.18
2018-05-01T23:18:04.695Z,94534.23
2018-05-01T23:20:33.136Z,94533.38
2018-05-01T23:23:01.528Z,94531.39
2018-05-01T23:25:29.971Z,94525.64
2018-05-01T23:27:58.420Z,94526.04
2018-05-01T23:30:26.854Z,94523.21
2018-05-01T23:32:55.259Z,94525.61
2018-05-01T23:35:23.671Z,94526.83
2018-05-01T23:37:52.155Z,94520.48
2018-05-01T23:40:20.567Z,94516.48
2018-05-01T23:42:49.036Z,94499.42
2018-05-01T23:45:17.502Z,94523.08
2018-05-01T23:47:45.929Z,94523.27
2018-05-01T23:50:14.404Z,94524.53
2018-05-01T23:52:42.951Z,94527.45
2018-05-01T23:55:11.359Z,94529.10
2018-05-01T23:57:39.846Z,94518.98
